< Cyclone 199707 1997 Season Cyclone 199709 >
Cyclone 199708 (DRENA)
General InformationTrack Information on Google MapsDetailed Wind InformationList of All Images || ResourceGoogle EarthGE AnimationAtom FeedGeoJSON
Detalied Best Track (Time Zone = UTC)
Year Month Day Hour Lat. Long. Pressure (hPa) Wind (kt) Class Image Chart
1997 1 3 18 -15.0 162.5 990 41 3 Image --
1997 1 4 00 -14.7 161.5 980 51 4 Image --
1997 1 4 06 -15.1 160.7 975 60 4 Image --
1997 1 4 12 -15.5 160.2 970 60 4 Image --
1997 1 4 18 -15.2 159.6 965 60 4 Image --
1997 1 5 00 -15.1 159.5 955 60 4 Image --
1997 1 5 06 -15.5 159.2 945 91 5 Image --
1997 1 5 12 -15.7 158.9 945 91 5 Image --
1997 1 5 18 -16.0 158.5 940 91 5 Image --
1997 1 6 00 -16.4 158.6 935 91 5 Image --
1997 1 6 06 -16.9 158.7 935 91 5 Image --
1997 1 6 12 -17.3 159.4 940 86 5 Image --
1997 1 6 18 -17.8 160.1 945 86 5 Image --
1997 1 7 00 -18.0 161.0 945 86 5 Image --
1997 1 7 06 -19.3 162.3 945 86 5 Image --
1997 1 7 12 -20.1 163.3 945 86 5 Image --
1997 1 7 18 -20.8 164.4 950 82 5 Image --
1997 1 8 00 -22.1 165.3 950 82 5 Image --
1997 1 8 06 -23.4 166.5 960 82 5 Image --
1997 1 8 12 -25.2 167.0 970 76 5 Image --
1997 1 8 18 -26.2 167.4 970 76 5 Image --
1997 1 9 00 -28.0 168.3 970 70 5 Image --
< Cyclone 199707 1997 Season Cyclone 199709 >

Help